createdAt,value
2023-04-29T00:00:09.140Z,100768.41
2023-04-29T00:02:35.931Z,100736.50
2023-04-29T00:02:52.581Z,100736.50
2023-04-29T00:05:05.197Z,100807.66
2023-04-29T00:07:36.480Z,100810.63
2023-04-29T00:07:52.511Z,100810.63
2023-04-29T00:10:03.338Z,100806.66
2023-04-29T00:12:31.840Z,100780.94
2023-04-29T00:12:52.486Z,100780.94
2023-04-29T00:15:02.920Z,100693.59
2023-04-29T00:17:29.352Z,100812.06
2023-04-29T00:17:52.533Z,100812.06
2023-04-29T00:19:55.730Z,100529.53
2023-04-29T00:22:22.769Z,100743.84
2023-04-29T00:22:52.506Z,100743.84
2023-04-29T00:24:49.109Z,100831.94
2023-04-29T00:27:16.783Z,100830.34
2023-04-29T00:27:52.516Z,100830.34
2023-04-29T00:29:43.834Z,100744.06
2023-04-29T00:32:10.395Z,100842.66
2023-04-29T00:32:52.536Z,100842.66
2023-04-29T00:34:36.825Z,100826.28
2023-04-29T00:37:03.328Z,100652.03
2023-04-29T00:37:52.585Z,100652.03
2023-04-29T00:39:29.698Z,100716.75
2023-04-29T00:41:56.171Z,100841.38
2023-04-29T00:42:52.469Z,100841.38
2023-04-29T00:44:22.643Z,100848.19
2023-04-29T00:46:49.052Z,100862.66
2023-04-29T00:47:52.580Z,100862.66
2023-04-29T00:49:15.774Z,100861.31
2023-04-29T00:51:45.019Z,100722.03
2023-04-29T00:52:52.537Z,100722.03
2023-04-29T00:54:11.917Z,100823.03
2023-04-29T00:56:41.804Z,100862.72
2023-04-29T00:57:52.482Z,100862.72
2023-04-29T00:59:10.115Z,100860.09
2023-04-29T01:01:36.759Z,100847.97
2023-04-29T01:02:52.544Z,100847.97
2023-04-29T01:04:05.895Z,100873.22
2023-04-29T01:06:44.636Z,100873.06
2023-04-29T01:07:52.513Z,100873.06
2023-04-29T01:09:21.559Z,100862.63
2023-04-29T01:12:11.561Z,100880.94
2023-04-29T01:12:52.483Z,100880.94
2023-04-29T01:14:39.528Z,100887.44
2023-04-29T01:17:18.184Z,100870.06
2023-04-29T01:17:52.571Z,100870.06
2023-04-29T01:19:48.451Z,100809.78
2023-04-29T01:22:15.561Z,100892.44
2023-04-29T01:22:52.520Z,100892.44
2023-04-29T01:24:41.888Z,100850.56
2023-04-29T01:27:28.641Z,100905.72
2023-04-29T01:27:52.519Z,100905.72
2023-04-29T01:30:26.803Z,100887.47
2023-04-29T01:33:34.489Z,100906.03
2023-04-29T01:33:34.660Z,100906.03
2023-04-29T01:36:17.120Z,100913.25
2023-04-29T01:37:52.489Z,100913.25
2023-04-29T01:39:04.798Z,100916.59
2023-04-29T01:41:44.610Z,100913.97
2023-04-29T01:42:52.587Z,100913.97
2023-04-29T01:44:18.553Z,100791.09
2023-04-29T01:46:50.815Z,100914.25
2023-04-29T01:47:52.515Z,100914.25
2023-04-29T01:49:21.259Z,100910.31
2023-04-29T01:51:47.609Z,100796.69
2023-04-29T01:52:52.504Z,100796.69
2023-04-29T01:54:13.976Z,100835.50
2023-04-29T01:56:40.351Z,100924.50
2023-04-29T01:57:52.492Z,100924.50
2023-04-29T01:59:08.016Z,100895.78
2023-04-29T02:01:34.510Z,100869.38
2023-04-29T02:02:52.600Z,100869.38
2023-04-29T02:04:00.937Z,100718.09
2023-04-29T02:06:28.005Z,100936.19
2023-04-29T02:07:52.535Z,100936.19
2023-04-29T02:08:54.460Z,100943.53
2023-04-29T02:11:21.126Z,100860.91
2023-04-29T02:12:52.519Z,100860.91
2023-04-29T02:13:47.551Z,100938.94
2023-04-29T02:16:17.382Z,100914.16
2023-04-29T02:17:52.591Z,100914.16
2023-04-29T02:18:43.736Z,100871.84
2023-04-29T02:21:10.202Z,100909.13
2023-04-29T02:22:52.540Z,100909.13
2023-04-29T02:23:36.611Z,100946.75
2023-04-29T02:26:06.114Z,100902.50
2023-04-29T02:27:52.531Z,100902.50
2023-04-29T02:28:34.714Z,100930.72
2023-04-29T02:31:01.184Z,100975.53
2023-04-29T02:32:52.536Z,100975.53
2023-04-29T02:33:27.962Z,100836.41
2023-04-29T02:35:54.366Z,100953.69
2023-04-29T02:37:52.548Z,100953.69
2023-04-29T02:38:20.995Z,100892.25
2023-04-29T02:40:47.687Z,100905.84
2023-04-29T02:42:52.556Z,100905.84
2023-04-29T02:43:14.061Z,100965.50
2023-04-29T02:45:40.456Z,100978.28
2023-04-29T02:47:52.581Z,100978.28
2023-04-29T02:48:07.033Z,100907.78
2023-04-29T02:50:33.669Z,100982.13
2023-04-29T02:52:52.539Z,100982.13
2023-04-29T02:53:00.056Z,100994.53
2023-04-29T02:55:26.909Z,100910.75
2023-04-29T02:57:53.345Z,100777.09
2023-04-29T02:57:53.478Z,100777.09
2023-04-29T03:00:23.585Z,100986.47
2023-04-29T03:02:49.990Z,100991.16
2023-04-29T03:02:52.584Z,100991.16
2023-04-29T03:05:16.476Z,100993.44
2023-04-29T03:07:44.332Z,100998.78
2023-04-29T03:07:52.534Z,100998.78
2023-04-29T03:10:11.523Z,100951.41
2023-04-29T03:12:39.358Z,100999.28
2023-04-29T03:12:52.576Z,100999.28
2023-04-29T03:15:10.520Z,100980.69
2023-04-29T03:17:37.230Z,100993.50
2023-04-29T03:17:52.543Z,100993.50
2023-04-29T03:20:04.691Z,100921.59
2023-04-29T03:22:31.144Z,100993.03
2023-04-29T03:22:52.543Z,100993.03
2023-04-29T03:24:57.638Z,101008.56
2023-04-29T03:27:24.068Z,100935.72
2023-04-29T03:27:52.524Z,100935.72
2023-04-29T03:29:50.675Z,100968.00
2023-04-29T03:32:17.465Z,100984.72
2023-04-29T03:32:52.546Z,100984.72
2023-04-29T03:34:43.951Z,101013.88
2023-04-29T03:37:10.406Z,101011.25
2023-04-29T03:37:52.552Z,101011.25
2023-04-29T03:39:36.877Z,101016.44
2023-04-29T03:42:04.436Z,100945.53
2023-04-29T03:42:52.552Z,100945.53
2023-04-29T03:44:30.943Z,101013.78
2023-04-29T03:46:57.257Z,100922.00
2023-04-29T03:47:52.593Z,100922.00
2023-04-29T03:49:23.776Z,101003.97
2023-04-29T03:51:50.304Z,100897.88
2023-04-29T03:52:52.534Z,100897.88
2023-04-29T03:54:17.337Z,101029.88
2023-04-29T03:56:43.778Z,101036.16
2023-04-29T03:57:52.522Z,101036.16
2023-04-29T03:59:10.338Z,101034.63
2023-04-29T04:01:36.758Z,101032.25
2023-04-29T04:02:52.669Z,101032.25
2023-04-29T04:04:05.426Z,101034.00
2023-04-29T04:06:31.972Z,100963.66
2023-04-29T04:07:52.522Z,100963.66
2023-04-29T04:08:58.431Z,100972.06
2023-04-29T04:11:24.837Z,100824.78
2023-04-29T04:12:52.525Z,100824.78
2023-04-29T04:13:52.106Z,101049.72
2023-04-29T04:16:18.577Z,101051.44
2023-04-29T04:17:52.567Z,101051.44
2023-04-29T04:18:44.989Z,101043.81
2023-04-29T04:21:12.514Z,101058.50
2023-04-29T04:22:52.525Z,101058.50
2023-04-29T04:23:42.576Z,101050.84
2023-04-29T04:26:09.073Z,100999.03
2023-04-29T04:27:52.590Z,100999.03
2023-04-29T04:28:35.665Z,101051.97
2023-04-29T04:31:02.514Z,101047.56
2023-04-29T04:32:52.556Z,101047.56
2023-04-29T04:33:29.125Z,101061.41
2023-04-29T04:35:55.478Z,101048.75
2023-04-29T04:37:52.567Z,101048.75
2023-04-29T04:38:25.185Z,101012.63
2023-04-29T04:40:51.681Z,100936.91
2023-04-29T04:42:54.057Z,100936.91
2023-04-29T04:43:18.106Z,101078.31
2023-04-29T04:45:44.567Z,101071.31
2023-04-29T04:47:52.562Z,101071.31
2023-04-29T04:48:10.992Z,101029.81
2023-04-29T04:50:37.332Z,101058.41
2023-04-29T04:52:52.525Z,101058.41
2023-04-29T04:53:03.666Z,101087.75
2023-04-29T04:55:31.627Z,101023.94
2023-04-29T04:57:52.557Z,101023.94
2023-04-29T04:57:58.570Z,101086.28
2023-04-29T05:00:24.950Z,101099.75
2023-04-29T05:02:51.964Z,100894.63
2023-04-29T05:02:52.721Z,100894.63
2023-04-29T05:05:18.566Z,101008.25
2023-04-29T05:07:45.344Z,101049.38
2023-04-29T05:07:52.541Z,101049.38
2023-04-29T05:10:11.705Z,101080.16
2023-04-29T05:12:38.203Z,101118.88
2023-04-29T05:12:52.608Z,101118.88
2023-04-29T05:15:04.871Z,101119.78
2023-04-29T05:17:31.312Z,101131.03
2023-04-29T05:17:52.560Z,101131.03
2023-04-29T05:19:57.642Z,101039.88
2023-04-29T05:22:24.084Z,101135.19
2023-04-29T05:22:52.544Z,101135.19
2023-04-29T05:24:51.553Z,101135.06
2023-04-29T05:27:17.902Z,101060.59
2023-04-29T05:27:52.557Z,101060.59
2023-04-29T05:29:44.467Z,101135.69
2023-04-29T05:32:11.483Z,101139.91
2023-04-29T05:32:52.562Z,101139.91
2023-04-29T05:34:37.940Z,101134.59
2023-04-29T05:37:04.276Z,101140.56
2023-04-29T05:37:52.553Z,101140.56
2023-04-29T05:39:30.801Z,101129.22
2023-04-29T05:41:57.173Z,101148.50
2023-04-29T05:42:52.696Z,101148.50
2023-04-29T05:44:23.517Z,101151.25
2023-04-29T05:46:52.254Z,101130.94
2023-04-29T05:47:52.699Z,101130.94
2023-04-29T05:49:18.713Z,101160.06
2023-04-29T05:51:45.365Z,101134.41
2023-04-29T05:52:52.533Z,101134.41
2023-04-29T05:54:11.906Z,101163.50
2023-04-29T05:56:38.392Z,101172.44
2023-04-29T05:57:52.537Z,101172.44
2023-04-29T05:59:04.773Z,101173.00
2023-04-29T06:01:31.465Z,101175.47
2023-04-29T06:02:58.690Z,101175.47
2023-04-29T06:03:58.045Z,101103.63
2023-04-29T06:06:24.603Z,101182.16
2023-04-29T06:07:52.556Z,101182.16
2023-04-29T06:08:51.281Z,101193.44
2023-04-29T06:11:17.684Z,101188.97
2023-04-29T06:12:52.567Z,101188.97
2023-04-29T06:13:44.439Z,101191.88
2023-04-29T06:16:12.222Z,101099.81
2023-04-29T06:17:52.557Z,101099.81
2023-04-29T06:18:38.632Z,101058.13
2023-04-29T06:21:05.324Z,101211.53
2023-04-29T06:22:52.614Z,101211.53
2023-04-29T06:23:32.738Z,101200.25
2023-04-29T06:25:59.102Z,101188.47
2023-04-29T06:27:52.539Z,101188.47
2023-04-29T06:28:25.504Z,101220.91
2023-04-29T06:30:51.905Z,101220.69
2023-04-29T06:32:52.651Z,101220.69
2023-04-29T06:33:20.653Z,101217.06
2023-04-29T06:35:47.185Z,101132.03
2023-04-29T06:37:52.567Z,101132.03
2023-04-29T06:38:13.689Z,101218.19
2023-04-29T06:40:39.991Z,101217.72
2023-04-29T06:42:52.653Z,101217.72
2023-04-29T06:43:06.359Z,101224.28
2023-04-29T06:45:32.667Z,101221.91
2023-04-29T06:47:52.575Z,101221.91
2023-04-29T06:47:59.094Z,101225.03
2023-04-29T06:50:26.163Z,101226.53
2023-04-29T06:52:52.853Z,101220.25
2023-04-29T06:52:53.566Z,101220.25
2023-04-29T06:55:19.264Z,101236.56
2023-04-29T06:57:45.768Z,101233.41
2023-04-29T06:57:52.550Z,101233.41
2023-04-29T07:00:12.484Z,101183.09
2023-04-29T07:02:39.183Z,101234.59
2023-04-29T07:02:52.609Z,101234.59
2023-04-29T07:05:06.618Z,101233.25
2023-04-29T07:07:33.046Z,101244.09
2023-04-29T07:07:52.564Z,101244.09
2023-04-29T07:09:59.434Z,101241.16
2023-04-29T07:12:26.688Z,101140.81
2023-04-29T07:12:52.547Z,101140.81
2023-04-29T07:14:53.231Z,101253.94
2023-04-29T07:17:20.645Z,101266.69
2023-04-29T07:17:52.592Z,101266.69
2023-04-29T07:19:47.177Z,101051.72
2023-04-29T07:22:13.741Z,101108.72
2023-04-29T07:22:52.556Z,101108.72
2023-04-29T07:24:40.105Z,101281.38
2023-04-29T07:27:06.953Z,101183.69
2023-04-29T07:27:52.549Z,101183.69
2023-04-29T07:29:33.513Z,101241.69
2023-04-29T07:31:59.929Z,101291.09
2023-04-29T07:32:52.596Z,101291.09
2023-04-29T07:34:26.350Z,101286.44
2023-04-29T07:36:52.671Z,101093.72
2023-04-29T07:37:52.566Z,101093.72
2023-04-29T07:39:19.012Z,101295.25
2023-04-29T07:41:45.869Z,101297.09
2023-04-29T07:42:52.643Z,101297.09
2023-04-29T07:44:12.201Z,101251.09
2023-04-29T07:46:38.822Z,101302.19
2023-04-29T07:47:52.684Z,101302.19
2023-04-29T07:49:06.889Z,101225.28
2023-04-29T07:51:33.302Z,101285.59
2023-04-29T07:52:52.592Z,101285.59
2023-04-29T07:53:59.729Z,101211.13
2023-04-29T07:56:26.352Z,101207.59
2023-04-29T07:57:52.556Z,101207.59
2023-04-29T07:58:52.769Z,101292.88
2023-04-29T08:01:19.213Z,101296.09
2023-04-29T08:02:52.832Z,101296.09
2023-04-29T08:03:45.821Z,101302.56
2023-04-29T08:06:12.520Z,101309.41
2023-04-29T08:07:52.556Z,101309.41
2023-04-29T08:08:39.079Z,101313.91
2023-04-29T08:11:06.664Z,101317.19
2023-04-29T08:12:52.553Z,101317.19
2023-04-29T08:13:35.585Z,101316.53
2023-04-29T08:16:02.020Z,101311.53
2023-04-29T08:17:52.570Z,101311.53
2023-04-29T08:18:28.508Z,101307.88
2023-04-29T08:20:54.816Z,101311.94
2023-04-29T08:22:52.572Z,101311.94
2023-04-29T08:23:21.238Z,101318.38
2023-04-29T08:25:47.633Z,101235.38
2023-04-29T08:27:52.593Z,101235.38
2023-04-29T08:28:14.043Z,101314.47
2023-04-29T08:30:41.144Z,101312.34
2023-04-29T08:32:52.951Z,101312.34
2023-04-29T08:33:08.390Z,101278.97
2023-04-29T08:35:37.801Z,101308.47
2023-04-29T08:37:52.609Z,101308.47
2023-04-29T08:38:08.382Z,101314.84
2023-04-29T08:40:36.510Z,101302.06
2023-04-29T08:42:52.696Z,101302.06
2023-04-29T08:43:04.852Z,101221.81
2023-04-29T08:45:32.644Z,101192.59
2023-04-29T08:47:52.718Z,101192.59
2023-04-29T08:48:02.251Z,101217.28
2023-04-29T08:50:30.548Z,101260.59
2023-04-29T08:52:52.551Z,101260.59
2023-04-29T08:52:57.332Z,101283.16
2023-04-29T08:55:24.599Z,101259.19
2023-04-29T08:57:54.798Z,101296.00
2023-04-29T08:57:54.971Z,101296.00
2023-04-29T09:00:22.816Z,101283.72
2023-04-29T09:02:54.166Z,101269.44
2023-04-29T09:02:54.468Z,101269.44
2023-04-29T09:05:21.928Z,101291.94
2023-04-29T09:07:50.266Z,101227.38
2023-04-29T09:07:52.567Z,101227.38
2023-04-29T09:10:17.737Z,101204.00
2023-04-29T09:12:44.633Z,101301.91
2023-04-29T09:12:52.555Z,101301.91
2023-04-29T09:15:11.290Z,101301.91
2023-04-29T09:17:45.286Z,101293.06
2023-04-29T09:17:52.618Z,101293.06
2023-04-29T09:20:21.076Z,101300.16
2023-04-29T09:23:05.413Z,101212.53
2023-04-29T09:23:05.568Z,101212.53
2023-04-29T09:25:31.997Z,101243.03
2023-04-29T09:27:52.574Z,101243.03
2023-04-29T09:27:58.432Z,101303.50
2023-04-29T09:30:26.669Z,101309.47
2023-04-29T09:33:07.946Z,101310.47
2023-04-29T09:33:08.200Z,101310.47
2023-04-29T09:35:35.103Z,101316.03
2023-04-29T09:37:52.560Z,101316.03
2023-04-29T09:38:18.315Z,101317.81
2023-04-29T09:40:58.297Z,101250.81
2023-04-29T09:42:52.584Z,101250.81
2023-04-29T09:43:26.348Z,101252.91
2023-04-29T09:45:52.950Z,101295.34
2023-04-29T09:47:52.702Z,101295.34
2023-04-29T09:48:19.477Z,101347.16
2023-04-29T09:51:01.522Z,101333.00
2023-04-29T09:52:52.635Z,101333.00
2023-04-29T09:53:29.922Z,101352.75
2023-04-29T09:56:01.528Z,101346.25
2023-04-29T09:57:52.595Z,101346.25
2023-04-29T09:58:39.133Z,101363.69
2023-04-29T10:01:06.770Z,101361.69
2023-04-29T10:02:52.713Z,101361.69
2023-04-29T10:03:38.980Z,101180.03
2023-04-29T10:06:07.494Z,101377.88
2023-04-29T10:07:52.629Z,101377.88
2023-04-29T10:08:35.105Z,101372.00
2023-04-29T10:11:03.286Z,101274.63
2023-04-29T10:12:52.597Z,101274.63
2023-04-29T10:13:30.781Z,101378.81
2023-04-29T10:16:30.126Z,101381.59
2023-04-29T10:17:52.581Z,101381.59
2023-04-29T10:19:00.408Z,101395.50
2023-04-29T10:21:31.481Z,101385.13
2023-04-29T10:22:52.588Z,101385.13
2023-04-29T10:23:59.342Z,101390.19
2023-04-29T10:26:29.891Z,101386.69
2023-04-29T10:27:52.655Z,101386.69
2023-04-29T10:29:00.257Z,101385.00
2023-04-29T10:31:27.799Z,101387.38
2023-04-29T10:32:53.078Z,101387.38
2023-04-29T10:33:58.031Z,101392.78
2023-04-29T10:36:30.232Z,101380.06
2023-04-29T10:37:52.590Z,101380.06
2023-04-29T10:38:59.628Z,101398.56
2023-04-29T10:41:29.939Z,101314.25
2023-04-29T10:42:52.619Z,101314.25
2023-04-29T10:43:59.153Z,101405.66
2023-04-29T10:46:26.877Z,101405.19
2023-04-29T10:47:52.650Z,101405.19
2023-04-29T10:49:00.328Z,101399.47
2023-04-29T10:51:34.943Z,101388.56
2023-04-29T10:52:52.582Z,101388.56
2023-04-29T10:54:11.072Z,101354.69
2023-04-29T10:56:56.392Z,101392.75
2023-04-29T10:57:52.572Z,101392.75
2023-04-29T10:59:42.793Z,101393.50
2023-04-29T11:02:10.347Z,101328.88
2023-04-29T11:02:52.741Z,101328.88
2023-04-29T11:05:10.135Z,101393.94
2023-04-29T11:07:36.839Z,101340.38
2023-04-29T11:07:52.681Z,101340.38
2023-04-29T11:10:03.944Z,101398.94
2023-04-29T11:12:30.347Z,101406.16
2023-04-29T11:12:52.628Z,101406.16
2023-04-29T11:15:04.690Z,101407.88
2023-04-29T11:17:38.387Z,101411.03
2023-04-29T11:17:52.822Z,101411.03
2023-04-29T11:20:10.496Z,101415.81
2023-04-29T11:22:36.898Z,101412.72
2023-04-29T11:22:52.673Z,101412.72
2023-04-29T11:25:06.057Z,101404.97
2023-04-29T11:27:34.510Z,101409.53
2023-04-29T11:27:52.608Z,101409.53
2023-04-29T11:30:04.926Z,101340.56
2023-04-29T11:32:38.088Z,101397.13
2023-04-29T11:32:52.805Z,101397.13
2023-04-29T11:35:15.884Z,101313.63
2023-04-29T11:37:43.644Z,101394.06
2023-04-29T11:37:52.631Z,101394.06
2023-04-29T11:40:12.148Z,101399.22
2023-04-29T11:42:45.281Z,101396.81
2023-04-29T11:42:52.619Z,101396.81
2023-04-29T11:45:12.293Z,101390.63
2023-04-29T11:47:44.962Z,101361.13
2023-04-29T11:47:54.902Z,101361.13
2023-04-29T11:50:12.431Z,101396.00
2023-04-29T11:52:40.646Z,101381.78
2023-04-29T11:52:52.604Z,101381.78
2023-04-29T11:55:10.439Z,101380.22
2023-04-29T11:57:37.162Z,101323.84
2023-04-29T11:57:52.703Z,101323.84
2023-04-29T12:00:05.670Z,101355.13
2023-04-29T12:02:34.492Z,101338.59
2023-04-29T12:02:52.794Z,101338.59
2023-04-29T12:05:06.610Z,101335.56
2023-04-29T12:07:33.474Z,101309.50
2023-04-29T12:07:52.593Z,101309.50
2023-04-29T12:10:00.056Z,101289.66
2023-04-29T12:12:27.781Z,101294.19
2023-04-29T12:12:52.590Z,101294.19
2023-04-29T12:14:54.700Z,101302.66
2023-04-29T12:17:21.519Z,101316.00
2023-04-29T12:17:52.621Z,101316.00
2023-04-29T12:19:49.169Z,101290.56
2023-04-29T12:22:15.639Z,101309.09
2023-04-29T12:22:52.629Z,101309.09
2023-04-29T12:24:42.097Z,101270.22
2023-04-29T12:27:10.198Z,101235.50
2023-04-29T12:27:52.586Z,101235.50
2023-04-29T12:29:37.767Z,101289.06
2023-04-29T12:32:04.250Z,101211.63
2023-04-29T12:32:52.648Z,101211.63
2023-04-29T12:34:32.225Z,101159.78
2023-04-29T12:37:00.303Z,101237.25
2023-04-29T12:37:52.592Z,101237.25
2023-04-29T12:39:27.737Z,101221.31
2023-04-29T12:42:01.798Z,101163.88
2023-04-29T12:42:52.621Z,101163.88
2023-04-29T12:44:36.304Z,101132.56
2023-04-29T12:47:13.644Z,101132.66
2023-04-29T12:47:52.700Z,101132.66
2023-04-29T12:49:47.180Z,101186.66
2023-04-29T12:52:13.953Z,101149.47
2023-04-29T12:52:52.651Z,101149.47
2023-04-29T12:54:50.814Z,101159.31
2023-04-29T12:57:17.438Z,101175.84
2023-04-29T12:57:52.748Z,101175.84
2023-04-29T12:59:43.751Z,101061.50
2023-04-29T13:02:10.301Z,101093.84
2023-04-29T13:02:52.807Z,101093.84
2023-04-29T13:04:36.717Z,101070.88
2023-04-29T13:07:04.352Z,101140.34
2023-04-29T13:07:52.581Z,101140.34
2023-04-29T13:09:31.243Z,101055.38
2023-04-29T13:11:57.936Z,101033.91
2023-04-29T13:12:52.599Z,101033.91
2023-04-29T13:14:24.474Z,101140.69
2023-04-29T13:16:50.911Z,101121.50
2023-04-29T13:17:52.652Z,101121.50
2023-04-29T13:19:28.085Z,101105.94
2023-04-29T13:21:56.669Z,101101.16
2023-04-29T13:22:52.663Z,101101.16
2023-04-29T13:24:25.182Z,101102.00
2023-04-29T13:26:52.759Z,101016.88
2023-04-29T13:27:52.615Z,101016.88
2023-04-29T13:29:19.249Z,101102.00
2023-04-29T13:31:45.653Z,101097.22
2023-04-29T13:32:57.134Z,101097.22
2023-04-29T13:34:12.112Z,101039.94
2023-04-29T13:36:38.688Z,100911.94
2023-04-29T13:37:52.676Z,100911.94
2023-04-29T13:39:05.136Z,100974.59
2023-04-29T13:41:34.926Z,101048.16
2023-04-29T13:42:59.528Z,101048.16
2023-04-29T13:44:02.366Z,100954.56
2023-04-29T13:46:31.525Z,101007.63
2023-04-29T13:48:07.766Z,101007.63
2023-04-29T13:49:20.728Z,101018.97
2023-04-29T13:57:34.568Z,100970.34
2023-04-29T13:58:40.058Z,100970.34
2023-04-29T13:59:42.825Z,101009.88
2023-04-29T14:02:24.958Z,100989.00
2023-04-29T14:04:52.500Z,101032.94
2023-04-29T14:07:19.478Z,101052.81
2023-04-29T14:07:52.626Z,101052.81
2023-04-29T14:09:46.405Z,101029.16
2023-04-29T14:12:12.976Z,101119.16
2023-04-29T14:12:52.642Z,101119.16
2023-04-29T14:14:39.343Z,101157.53
2023-04-29T14:17:05.981Z,101148.31
2023-04-29T14:17:52.712Z,101148.31
2023-04-29T14:19:32.343Z,100990.97
2023-04-29T14:21:58.643Z,101074.47
2023-04-29T14:22:52.579Z,101074.47
2023-04-29T14:24:24.998Z,101077.88
2023-04-29T14:26:52.194Z,101039.97
2023-04-29T14:27:52.654Z,101039.97
2023-04-29T14:29:19.041Z,101124.50
2023-04-29T14:31:45.536Z,101111.38
2023-04-29T14:32:52.651Z,101111.38
2023-04-29T14:34:12.979Z,101115.91
2023-04-29T14:36:39.366Z,101015.59
2023-04-29T14:37:52.649Z,101015.59
2023-04-29T14:39:05.722Z,101134.94
2023-04-29T14:41:32.102Z,101151.69
2023-04-29T14:42:52.687Z,101151.69
2023-04-29T14:43:59.191Z,101160.31
2023-04-29T14:46:25.612Z,101153.97
2023-04-29T14:47:52.673Z,101153.97
2023-04-29T14:48:52.048Z,101199.38
2023-04-29T14:51:18.392Z,101204.03
2023-04-29T14:52:52.656Z,101204.03
2023-04-29T14:53:44.775Z,101233.78
2023-04-29T14:56:11.173Z,101229.56
2023-04-29T14:57:52.662Z,101229.56
2023-04-29T14:58:37.577Z,101221.66
2023-04-29T15:01:04.013Z,101242.31
2023-04-29T15:02:52.681Z,101242.31
2023-04-29T15:03:30.531Z,101242.81
2023-04-29T15:05:58.055Z,101197.09
2023-04-29T15:07:52.705Z,101197.09
2023-04-29T15:08:24.633Z,101162.00
2023-04-29T15:10:51.511Z,101231.94
2023-04-29T15:12:52.664Z,101231.94
2023-04-29T15:13:17.859Z,101225.47
2023-04-29T15:15:44.306Z,101240.56
2023-04-29T15:17:52.777Z,101240.56
2023-04-29T15:18:10.909Z,101234.22
2023-04-29T15:20:38.026Z,101224.91
2023-04-29T15:22:52.694Z,101224.91
2023-04-29T15:23:06.020Z,101205.06
2023-04-29T15:25:34.649Z,101250.72
2023-04-29T15:27:52.664Z,101250.72
2023-04-29T15:28:02.228Z,101165.59
2023-04-29T15:30:28.844Z,101171.91
2023-04-29T15:32:52.729Z,101171.91
2023-04-29T15:32:55.746Z,101184.22
2023-04-29T15:35:22.384Z,101159.66
2023-04-29T15:37:49.548Z,101012.47
2023-04-29T15:37:52.676Z,101012.47
2023-04-29T15:40:16.831Z,101121.38
2023-04-29T15:42:43.520Z,101131.59
2023-04-29T15:42:52.698Z,101131.59
2023-04-29T15:45:10.647Z,101175.88
2023-04-29T15:47:37.148Z,101158.63
2023-04-29T15:47:52.784Z,101158.63
2023-04-29T15:50:03.716Z,101163.66
2023-04-29T15:52:30.224Z,101186.97
2023-04-29T15:52:52.664Z,101186.97
2023-04-29T15:54:56.602Z,101150.81
2023-04-29T15:57:23.055Z,101169.03
2023-04-29T15:57:52.683Z,101169.03
2023-04-29T15:59:49.457Z,101186.91
2023-04-29T16:02:16.001Z,101190.75
2023-04-29T16:02:52.733Z,101190.75
2023-04-29T16:04:42.512Z,101116.88
2023-04-29T16:07:09.027Z,101181.56
2023-04-29T16:07:52.664Z,101181.56
2023-04-29T16:09:35.798Z,101185.63
2023-04-29T16:12:02.308Z,101152.19
2023-04-29T16:12:52.714Z,101152.19
2023-04-29T16:14:32.654Z,101099.06
2023-04-29T16:16:59.138Z,101199.72
2023-04-29T16:17:52.698Z,101199.72
2023-04-29T16:19:25.582Z,101182.00
2023-04-29T16:21:52.082Z,101173.66
2023-04-29T16:22:52.675Z,101173.66
2023-04-29T16:24:18.469Z,101167.50
2023-04-29T16:26:45.286Z,101138.06
2023-04-29T16:27:52.660Z,101138.06
2023-04-29T16:29:13.379Z,101135.69
2023-04-29T16:31:40.438Z,101168.34
2023-04-29T16:32:52.725Z,101168.34
2023-04-29T16:34:07.106Z,101133.91
2023-04-29T16:36:33.828Z,101122.63
2023-04-29T16:37:52.667Z,101122.63
2023-04-29T16:39:00.331Z,101138.38
2023-04-29T16:41:26.874Z,101186.72
2023-04-29T16:42:52.678Z,101186.72
2023-04-29T16:43:53.972Z,101173.09
2023-04-29T16:46:20.617Z,101189.16
2023-04-29T16:47:52.729Z,101189.16
2023-04-29T16:48:47.162Z,101193.78
2023-04-29T16:51:13.885Z,101088.50
2023-04-29T16:52:52.700Z,101088.50
2023-04-29T16:53:40.296Z,101167.16
2023-04-29T16:56:07.286Z,101125.84
2023-04-29T16:57:52.759Z,101125.84
2023-04-29T16:58:33.878Z,101189.09
2023-04-29T17:01:00.425Z,101179.19
2023-04-29T17:02:52.719Z,101179.19
2023-04-29T17:03:29.720Z,101135.00
2023-04-29T17:05:56.340Z,101165.91
2023-04-29T17:07:52.670Z,101165.91
2023-04-29T17:08:22.859Z,101181.28
2023-04-29T17:10:49.251Z,101131.09
2023-04-29T17:12:52.696Z,101131.09
2023-04-29T17:13:15.596Z,101193.47
2023-04-29T17:15:42.007Z,101265.53
2023-04-29T17:17:52.728Z,101265.53
2023-04-29T17:18:08.416Z,101197.47
2023-04-29T17:20:35.089Z,101253.50
2023-04-29T17:22:52.691Z,101253.50
2023-04-29T17:23:01.716Z,101216.91
2023-04-29T17:25:28.087Z,101233.44
2023-04-29T17:27:52.705Z,101233.44
2023-04-29T17:27:54.481Z,101243.22
2023-04-29T17:30:21.421Z,101249.41
2023-04-29T17:32:49.765Z,101210.47
2023-04-29T17:32:52.720Z,101210.47
2023-04-29T17:35:16.398Z,101254.72
2023-04-29T17:37:42.884Z,101252.78
2023-04-29T17:37:52.692Z,101252.78
2023-04-29T17:40:10.903Z,101273.97
2023-04-29T17:42:37.451Z,101266.13
2023-04-29T17:42:52.712Z,101266.13
2023-04-29T17:45:05.470Z,101282.56
2023-04-29T17:47:32.079Z,101302.38
2023-04-29T17:47:52.715Z,101302.38
2023-04-29T17:50:00.412Z,101313.81
2023-04-29T17:52:29.122Z,101266.06
2023-04-29T17:52:52.678Z,101266.06
2023-04-29T17:54:55.625Z,101233.00
2023-04-29T17:57:21.970Z,101324.38
2023-04-29T17:57:52.722Z,101324.38
2023-04-29T17:59:48.374Z,101339.09
2023-04-29T18:02:14.838Z,101352.13
2023-04-29T18:02:52.767Z,101352.13
2023-04-29T18:04:41.685Z,101353.06
2023-04-29T18:07:08.157Z,101360.19
2023-04-29T18:07:52.735Z,101360.19
2023-04-29T18:09:34.949Z,101360.44
2023-04-29T18:12:02.273Z,101341.28
2023-04-29T18:12:52.682Z,101341.28
2023-04-29T18:14:30.527Z,101212.69
2023-04-29T18:17:01.006Z,101408.50
2023-04-29T18:17:52.830Z,101408.50
2023-04-29T18:19:28.313Z,101295.09
2023-04-29T18:21:59.138Z,101393.22
2023-04-29T18:22:52.670Z,101393.22
2023-04-29T18:24:26.138Z,101387.97
2023-04-29T18:26:52.636Z,101413.94
2023-04-29T18:27:54.436Z,101413.94
2023-04-29T18:29:19.096Z,101419.50
2023-04-29T18:31:45.516Z,101410.69
2023-04-29T18:32:52.782Z,101410.69
2023-04-29T18:34:11.851Z,101434.91
2023-04-29T18:36:38.588Z,101420.50
2023-04-29T18:37:52.708Z,101420.50
2023-04-29T18:39:05.054Z,101439.88
2023-04-29T18:41:31.761Z,101454.13
2023-04-29T18:42:52.718Z,101454.13
2023-04-29T18:43:58.221Z,101381.38
2023-04-29T18:46:24.763Z,101464.25
2023-04-29T18:47:52.746Z,101464.25
2023-04-29T18:48:51.370Z,101474.91
2023-04-29T18:51:17.750Z,101363.41
2023-04-29T18:52:52.732Z,101363.41
2023-04-29T18:53:44.140Z,101476.94
2023-04-29T18:56:10.634Z,101400.94
2023-04-29T18:57:52.740Z,101400.94
2023-04-29T18:58:37.110Z,101477.00